This is the latest recevied weather packets stored in our database for station/object C31AG-13. If no packets are shown the sender has not sent any weather packets the latest 1 day(s).
| Time | Temp. | Humidity | Pressure | Rain* | Wind** | Luminosity | Snow |
|---|---|---|---|---|---|---|---|
| 1778100085 | 8.33° C | 87% | 1014 hPa | 0 mm | - | - | - |
| 1778098884 | 8.33° C | 87% | 1014 hPa | 0 mm | - | - | - |
| 1778097083 | 8.33° C | 87% | 1014 hPa | 0 mm | - | - | - |
| 1778095282 | 8.89° C | 86% | 1013 hPa | 0 mm | - | - | - |
| 1778091079 | 10° C | 84% | 1012 hPa | 0 mm | - | - | - |
| 1778088077 | 11.11° C | 80% | 1010 hPa | 0.25 mm | - | - | - |
| 1778086876 | 11.11° C | 80% | 1010 hPa | 0 mm | - | - | - |
| 1778085675 | 11.67° C | 78% | 1010 hPa | 0 mm | - | - | - |
| 1778083874 | 11.67° C | 81% | 1010 hPa | 0 mm | - | - | - |
| 1778082673 | 11.67° C | 82% | 1010 hPa | 0 mm | - | - | - |
| 1778079671 | 11.67° C | 75% | 1010 hPa | 0 mm | - | - | - |
| 1778078470 | 12.22° C | 71% | 1010 hPa | 0 mm | - | - | - |
| 1778077269 | 12.22° C | 70% | 1010 hPa | 0 mm | - | - | - |
| 1778076669 | 12.22° C | 68% | 1010 hPa | 0.25 mm | - | - | - |
| 1778075468 | 12.22° C | 67% | 1010 hPa | 0.25 mm | - | - | - |
| 1778073667 | 11.67° C | 71% | 1010 hPa | 0 mm | - | - | - |
| 1778072465 | 10.56° C | 73% | 1010 hPa | 0 mm | - | - | - |
| 1778068262 | 9.44° C | 80% | 1010 hPa | 0 mm | - | - | - |
| 1778067061 | 9.44° C | 80% | 1010 hPa | 0 mm | - | - | - |
| 1778065260 | 9.44° C | 80% | 1010 hPa | 0 mm | - | - | - |
| 1778064059 | 8.33° C | 80% | 1010 hPa | 0 mm | - | - | - |
| 1778062858 | 7.78° C | 80% | 1011 hPa | 0 mm | - | - | - |
| 1778061057 | 7.78° C | 80% | 1011 hPa | 0 mm | - | - | - |
| 1778059856 | 7.78° C | 80% | 1011 hPa | 0 mm | - | - | - |
| 1778058655 | 7.78° C | 80% | 1011 hPa | 0 mm | - | - | - |
* Rain latest hour (hover to see other rain measurements)
** Current wind speed in m/s (hover to see current wind gust speed)